sensor_id;sensor_type;location;lat;lon;timestamp;pressure;altitude;pressure_sealevel;temperature;humidity
45403;BME280;47427;51.976;5.326;2023-04-21T00:01:51;101564.09;;;8.95;100.00
45403;BME280;47427;51.976;5.326;2023-04-21T00:05:13;101557.06;;;8.94;100.00
45403;BME280;47427;51.976;5.326;2023-04-21T00:08:36;101543.66;;;8.86;100.00
45403;BME280;47427;51.976;5.326;2023-04-21T00:12:02;101541.03;;;8.86;100.00
45403;BME280;47427;51.976;5.326;2023-04-21T00:15:25;101541.31;;;8.92;100.00
45403;BME280;47427;51.976;5.326;2023-04-21T00:18:47;101551.03;;;8.95;100.00
45403;BME280;47427;51.976;5.326;2023-04-21T00:22:09;101546.13;;;8.83;100.00
45403;BME280;47427;51.976;5.326;2023-04-21T00:25:36;101531.06;;;8.77;100.00
45403;BME280;47427;51.976;5.326;2023-04-21T00:28:59;101518.19;;;8.82;100.00
45403;BME280;47427;51.976;5.326;2023-04-21T00:32:20;101510.59;;;8.88;100.00
45403;BME280;47427;51.976;5.326;2023-04-21T00:35:45;101507.75;;;8.83;100.00
45403;BME280;47427;51.976;5.326;2023-04-21T00:39:06;101506.53;;;8.95;100.00
45403;BME280;47427;51.976;5.326;2023-04-21T00:42:30;101501.84;;;8.87;100.00
45403;BME280;47427;51.976;5.326;2023-04-21T00:45:53;101499.91;;;8.83;100.00
45403;BME280;47427;51.976;5.326;2023-04-21T00:49:15;101490.97;;;8.78;100.00
45403;BME280;47427;51.976;5.326;2023-04-21T00:52:42;101474.06;;;8.70;100.00
45403;BME280;47427;51.976;5.326;2023-04-21T00:56:08;101484.81;;;8.76;100.00
45403;BME280;47427;51.976;5.326;2023-04-21T00:59:33;101482.09;;;8.75;100.00
45403;BME280;47427;51.976;5.326;2023-04-21T01:02:55;101487.25;;;8.73;100.00
45403;BME280;47427;51.976;5.326;2023-04-21T01:06:18;101476.13;;;8.77;100.00
45403;BME280;47427;51.976;5.326;2023-04-21T01:09:41;101486.31;;;8.71;100.00
45403;BME280;47427;51.976;5.326;2023-04-21T01:13:03;101478.47;;;8.71;100.00
45403;BME280;47427;51.976;5.326;2023-04-21T01:16:25;101488.94;;;8.71;100.00
45403;BME280;47427;51.976;5.326;2023-04-21T01:19:49;101484.72;;;8.75;100.00
45403;BME280;47427;51.976;5.326;2023-04-21T01:23:13;101478.59;;;8.74;100.00
45403;BME280;47427;51.976;5.326;2023-04-21T01:26:36;101480.47;;;8.77;100.00
45403;BME280;47427;51.976;5.326;2023-04-21T01:29:59;101453.25;;;8.73;100.00
45403;BME280;47427;51.976;5.326;2023-04-21T01:33:22;101473.91;;;8.86;100.00
45403;BME280;47427;51.976;5.326;2023-04-21T01:36:45;101472.44;;;8.93;100.00
45403;BME280;47427;51.976;5.326;2023-04-21T01:40:08;101460.94;;;8.89;100.00
45403;BME280;47427;51.976;5.326;2023-04-21T01:43:30;101475.03;;;8.93;100.00
45403;BME280;47427;51.976;5.326;2023-04-21T01:46:53;101456.72;;;8.93;100.00
45403;BME280;47427;51.976;5.326;2023-04-21T01:50:14;101450.34;;;8.86;100.00
45403;BME280;47427;51.976;5.326;2023-04-21T01:53:37;101450.34;;;8.86;100.00
45403;BME280;47427;51.976;5.326;2023-04-21T01:57:00;101454.06;;;8.92;100.00
45403;BME280;47427;51.976;5.326;2023-04-21T02:00:22;101454.88;;;8.90;100.00
45403;BME280;47427;51.976;5.326;2023-04-21T02:03:46;101454.00;;;8.90;100.00
45403;BME280;47427;51.976;5.326;2023-04-21T02:07:09;101455.84;;;8.93;100.00
45403;BME280;47427;51.976;5.326;2023-04-21T02:10:31;101452.13;;;8.87;100.00
45403;BME280;47427;51.976;5.326;2023-04-21T02:14:12;101455.84;;;8.93;100.00
45403;BME280;47427;51.976;5.326;2023-04-21T02:17:35;101439.19;;;8.90;100.00
45403;BME280;47427;51.976;5.326;2023-04-21T02:20:58;101425.09;;;8.87;100.00
45403;BME280;47427;51.976;5.326;2023-04-21T02:24:21;101425.13;;;8.88;100.00
45403;BME280;47427;51.976;5.326;2023-04-21T02:27:43;101428.66;;;8.89;100.00
45403;BME280;47427;51.976;5.326;2023-04-21T02:31:06;101419.88;;;8.88;100.00
45403;BME280;47427;51.976;5.326;2023-04-21T02:34:28;101426.72;;;8.85;100.00
45403;BME280;47427;51.976;5.326;2023-04-21T02:37:51;101438.03;;;8.84;100.00
45403;BME280;47427;51.976;5.326;2023-04-21T02:41:14;101418.75;;;8.82;100.00
45403;BME280;47427;51.976;5.326;2023-04-21T02:44:38;101415.06;;;8.77;100.00
45403;BME280;47427;51.976;5.326;2023-04-21T02:48:19;101412.56;;;8.80;100.00
45403;BME280;47427;51.976;5.326;2023-04-21T02:51:45;101417.66;;;8.77;100.00
45403;BME280;47427;51.976;5.326;2023-04-21T02:55:08;101415.25;;;8.81;100.00
45403;BME280;47427;51.976;5.326;2023-04-21T02:58:31;101415.31;;;8.83;100.00
45403;BME280;47427;51.976;5.326;2023-04-21T03:01:53;101406.31;;;8.76;100.00
45403;BME280;47427;51.976;5.326;2023-04-21T03:05:15;101412.25;;;8.72;100.00
45403;BME280;47427;51.976;5.326;2023-04-21T03:08:39;101417.22;;;8.66;100.00
45403;BME280;47427;51.976;5.326;2023-04-21T03:12:00;101412.78;;;8.65;100.00
45403;BME280;47427;51.976;5.326;2023-04-21T03:15:24;101403.94;;;8.61;100.00
45403;BME280;47427;51.976;5.326;2023-04-21T03:18:46;101410.81;;;8.59;100.00
45403;BME280;47427;51.976;5.326;2023-04-21T03:22:09;101403.06;;;8.61;100.00
45403;BME280;47427;51.976;5.326;2023-04-21T03:25:32;101397.09;;;8.65;100.00
45403;BME280;47427;51.976;5.326;2023-04-21T03:28:53;101392.84;;;8.67;100.00
45403;BME280;47427;51.976;5.326;2023-04-21T03:32:16;101387.72;;;8.70;100.00
45403;BME280;47427;51.976;5.326;2023-04-21T03:35:39;101386.72;;;8.66;100.00
45403;BME280;47427;51.976;5.326;2023-04-21T03:39:02;101373.75;;;8.70;100.00
45403;BME280;47427;51.976;5.326;2023-04-21T03:42:25;101380.63;;;8.67;100.00
45403;BME280;47427;51.976;5.326;2023-04-21T03:45:47;101375.41;;;8.67;100.00
45403;BME280;47427;51.976;5.326;2023-04-21T03:49:09;101378.78;;;8.65;100.00
45403;BME280;47427;51.976;5.326;2023-04-21T03:52:32;101372.03;;;8.70;100.00
45403;BME280;47427;51.976;5.326;2023-04-21T03:55:54;101368.78;;;8.76;100.00
45403;BME280;47427;51.976;5.326;2023-04-21T03:59:16;101381.69;;;8.71;100.00
45403;BME280;47427;51.976;5.326;2023-04-21T04:02:39;101369.41;;;8.70;100.00
45403;BME280;47427;51.976;5.326;2023-04-21T04:06:01;101375.16;;;8.61;100.00
45403;BME280;47427;51.976;5.326;2023-04-21T04:09:25;101369.44;;;8.51;100.00
45403;BME280;47427;51.976;5.326;2023-04-21T04:12:47;101360.59;;;8.47;100.00
45403;BME280;47427;51.976;5.326;2023-04-21T04:16:10;101376.75;;;8.38;100.00
45403;BME280;47427;51.976;5.326;2023-04-21T04:19:32;101361.69;;;8.33;100.00
45403;BME280;47427;51.976;5.326;2023-04-21T04:22:54;101366.72;;;8.28;100.00
45403;BME280;47427;51.976;5.326;2023-04-21T04:26:17;101362.88;;;8.20;100.00
45403;BME280;47427;51.976;5.326;2023-04-21T04:29:58;101354.75;;;8.14;100.00
45403;BME280;47427;51.976;5.326;2023-04-21T04:33:21;101365.13;;;8.12;100.00
45403;BME280;47427;51.976;5.326;2023-04-21T04:36:45;101365.13;;;8.12;100.00
45403;BME280;47427;51.976;5.326;2023-04-21T04:40:08;101365.13;;;8.12;100.00
45403;BME280;47427;51.976;5.326;2023-04-21T04:43:33;101368.81;;;8.16;100.00
45403;BME280;47427;51.976;5.326;2023-04-21T04:46:58;101372.22;;;8.15;100.00
45403;BME280;47427;51.976;5.326;2023-04-21T04:50:21;101375.25;;;8.04;100.00
45403;BME280;47427;51.976;5.326;2023-04-21T04:53:44;101386.47;;;8.02;100.00
45403;BME280;47427;51.976;5.326;2023-04-21T04:57:26;101379.47;;;8.01;100.00
45403;BME280;47427;51.976;5.326;2023-04-21T05:00:48;101365.69;;;8.05;100.00
45403;BME280;47427;51.976;5.326;2023-04-21T05:04:10;101369.78;;;8.18;100.00
45403;BME280;47427;51.976;5.326;2023-04-21T05:07:33;101374.28;;;8.22;100.00
45403;BME280;47427;51.976;5.326;2023-04-21T05:10:56;101375.88;;;8.18;100.00
45403;BME280;47427;51.976;5.326;2023-04-21T05:14:17;101373.47;;;8.23;100.00
45403;BME280;47427;51.976;5.326;2023-04-21T05:17:40;101377.88;;;8.24;100.00
45403;BME280;47427;51.976;5.326;2023-04-21T05:21:03;101379.81;;;8.28;100.00
45403;BME280;47427;51.976;5.326;2023-04-21T05:24:24;101387.00;;;8.34;100.00
45403;BME280;47427;51.976;5.326;2023-04-21T05:27:47;101382.06;;;8.40;100.00
45403;BME280;47427;51.976;5.326;2023-04-21T05:31:09;101389.28;;;8.45;100.00
45403;BME280;47427;51.976;5.326;2023-04-21T05:34:31;101385.91;;;8.48;100.00
45403;BME280;47427;51.976;5.326;2023-04-21T05:37:54;101396.97;;;8.62;100.00
45403;BME280;47427;51.976;5.326;2023-04-21T05:41:16;101399.03;;;8.69;100.00
45403;BME280;47427;51.976;5.326;2023-04-21T05:44:38;101395.13;;;8.80;100.00
45403;BME280;47427;51.976;5.326;2023-04-21T05:48:01;101400.81;;;8.91;100.00
45403;BME280;47427;51.976;5.326;2023-04-21T05:51:23;101410.50;;;8.94;100.00
45403;BME280;47427;51.976;5.326;2023-04-21T05:54:46;101412.50;;;8.99;100.00
45403;BME280;47427;51.976;5.326;2023-04-21T05:58:08;101415.38;;;9.05;100.00
45403;BME280;47427;51.976;5.326;2023-04-21T06:01:30;101417.22;;;9.08;100.00
45403;BME280;47427;51.976;5.326;2023-04-21T06:04:53;101412.06;;;9.09;100.00
45403;BME280;47427;51.976;5.326;2023-04-21T06:08:15;101410.88;;;9.24;100.00
45403;BME280;47427;51.976;5.326;2023-04-21T06:11:37;101411.91;;;9.27;100.00
45403;BME280;47427;51.976;5.326;2023-04-21T06:15:00;101404.28;;;9.33;100.00
45403;BME280;47427;51.976;5.326;2023-04-21T06:18:40;101399.16;;;9.37;100.00
45403;BME280;47427;51.976;5.326;2023-04-21T06:22:01;101396.56;;;9.37;100.00
45403;BME280;47427;51.976;5.326;2023-04-21T06:25:24;101404.28;;;9.33;100.00
45403;BME280;47427;51.976;5.326;2023-04-21T06:28:45;101406.09;;;9.35;100.00
45403;BME280;47427;51.976;5.326;2023-04-21T06:32:11;101405.44;;;9.40;100.00
45403;BME280;47427;51.976;5.326;2023-04-21T06:35:34;101399.25;;;9.61;100.00
45403;BME280;47427;51.976;5.326;2023-04-21T06:38:55;101398.22;;;9.80;100.00
45403;BME280;47427;51.976;5.326;2023-04-21T06:42:18;101396.19;;;9.95;100.00
45403;BME280;47427;51.976;5.326;2023-04-21T06:45:40;101392.19;;;10.05;100.00
45403;BME280;47427;51.976;5.326;2023-04-21T06:49:02;101395.94;;;10.11;100.00
45403;BME280;47427;51.976;5.326;2023-04-21T06:52:25;101396.19;;;10.41;100.00
45403;BME280;47427;51.976;5.326;2023-04-21T06:55:47;101390.19;;;11.51;100.00
45403;BME280;47427;51.976;5.326;2023-04-21T06:59:10;101395.00;;;13.26;100.00
45403;BME280;47427;51.976;5.326;2023-04-21T07:02:33;101385.34;;;14.04;100.00
45403;BME280;47427;51.976;5.326;2023-04-21T07:05:54;101382.34;;;13.85;100.00
45403;BME280;47427;51.976;5.326;2023-04-21T07:09:17;101384.47;;;14.03;100.00
45403;BME280;47427;51.976;5.326;2023-04-21T07:12:39;101387.09;;;14.96;100.00
45403;BME280;47427;51.976;5.326;2023-04-21T07:16:01;101389.16;;;15.70;100.00
45403;BME280;47427;51.976;5.326;2023-04-21T07:19:24;101376.47;;;16.99;93.52
45403;BME280;47427;51.976;5.326;2023-04-21T07:22:46;101382.00;;;17.26;89.47
45403;BME280;47427;51.976;5.326;2023-04-21T07:26:09;101389.94;;;15.66;95.60
45403;BME280;47427;51.976;5.326;2023-04-21T07:29:31;101393.69;;;15.77;93.72
45403;BME280;47427;51.976;5.326;2023-04-21T07:32:53;101390.94;;;15.15;94.44
45403;BME280;47427;51.976;5.326;2023-04-21T07:36:16;101395.81;;;16.06;91.68
45403;BME280;47427;51.976;5.326;2023-04-21T07:39:38;101393.25;;;14.46;94.64
45403;BME280;47427;51.976;5.326;2023-04-21T07:43:00;101402.78;;;13.55;100.00
45403;BME280;47427;51.976;5.326;2023-04-21T07:46:23;101401.09;;;14.90;99.58
45403;BME280;47427;51.976;5.326;2023-04-21T07:49:50;101391.41;;;14.91;96.95
45403;BME280;47427;51.976;5.326;2023-04-21T07:53:13;101385.88;;;15.27;92.74
45403;BME280;47427;51.976;5.326;2023-04-21T07:56:36;101397.63;;;14.02;96.15
45403;BME280;47427;51.976;5.326;2023-04-21T07:59:57;101392.81;;;14.25;97.53
45403;BME280;47427;51.976;5.326;2023-04-21T08:03:21;101382.97;;;16.40;92.35
45403;BME280;47427;51.976;5.326;2023-04-21T08:06:43;101390.53;;;16.09;87.28
45403;BME280;47427;51.976;5.326;2023-04-21T08:10:07;101381.81;;;14.96;92.29
45403;BME280;47427;51.976;5.326;2023-04-21T08:13:30;101383.22;;;16.64;87.18
45403;BME280;47427;51.976;5.326;2023-04-21T08:16:52;101377.38;;;18.75;79.19
45403;BME280;47427;51.976;5.326;2023-04-21T08:20:15;101371.66;;;21.55;58.61
45403;BME280;47427;51.976;5.326;2023-04-21T08:23:38;101371.16;;;21.97;53.93
45403;BME280;47427;51.976;5.326;2023-04-21T08:26:59;101376.31;;;19.98;57.03
45403;BME280;47427;51.976;5.326;2023-04-21T08:30:26;101380.81;;;19.86;55.11
45403;BME280;47427;51.976;5.326;2023-04-21T08:33:48;101383.53;;;19.73;55.33
45403;BME280;47427;51.976;5.326;2023-04-21T08:37:11;101372.94;;;18.76;59.15
45403;BME280;47427;51.976;5.326;2023-04-21T08:40:37;101377.75;;;21.68;50.68
45403;BME280;47427;51.976;5.326;2023-04-21T08:43:59;101378.53;;;21.76;49.52
45403;BME280;47427;51.976;5.326;2023-04-21T08:47:23;101370.50;;;20.85;51.19
45403;BME280;47427;51.976;5.326;2023-04-21T08:50:48;101364.16;;;21.02;52.47
45403;BME280;47427;51.976;5.326;2023-04-21T08:54:31;101360.41;;;21.23;52.76
45403;BME280;47427;51.976;5.326;2023-04-21T08:57:52;101351.16;;;22.86;47.33
45403;BME280;47427;51.976;5.326;2023-04-21T09:01:14;101353.22;;;22.05;47.72
45403;BME280;47427;51.976;5.326;2023-04-21T09:04:45;101356.84;;;21.20;49.54
45403;BME280;47427;51.976;5.326;2023-04-21T09:08:14;101359.72;;;20.97;51.45
45403;BME280;47427;51.976;5.326;2023-04-21T09:11:39;101356.25;;;21.77;50.74
45403;BME280;47427;51.976;5.326;2023-04-21T09:15:21;101361.28;;;22.03;48.25
45403;BME280;47427;51.976;5.326;2023-04-21T09:18:44;101363.09;;;21.16;51.40
45403;BME280;47427;51.976;5.326;2023-04-21T09:22:07;101360.97;;;20.47;51.68
45403;BME280;47427;51.976;5.326;2023-04-21T09:25:31;101349.03;;;19.02;55.58
45403;BME280;47427;51.976;5.326;2023-04-21T09:28:55;101349.88;;;18.96;56.03
45403;BME280;47427;51.976;5.326;2023-04-21T09:32:19;101355.59;;;20.53;54.71
45403;BME280;47427;51.976;5.326;2023-04-21T09:35:40;101354.25;;;19.54;54.25
45403;BME280;47427;51.976;5.326;2023-04-21T09:39:03;101363.03;;;19.93;54.37
45403;BME280;47427;51.976;5.326;2023-04-21T09:42:30;101359.31;;;21.45;50.46
45403;BME280;47427;51.976;5.326;2023-04-21T09:45:52;101346.38;;;20.96;49.66
45403;BME280;47427;51.976;5.326;2023-04-21T09:49:17;101344.72;;;20.83;52.93
45403;BME280;47427;51.976;5.326;2023-04-21T09:52:43;101342.06;;;20.84;51.04
45403;BME280;47427;51.976;5.326;2023-04-21T09:56:13;101340.47;;;21.59;49.43
45403;BME280;47427;51.976;5.326;2023-04-21T09:59:39;101337.81;;;23.37;46.92
45403;BME280;47427;51.976;5.326;2023-04-21T10:03:04;101351.31;;;21.43;48.19
45403;BME280;47427;51.976;5.326;2023-04-21T10:06:31;101344.13;;;20.44;49.96
45403;BME280;47427;51.976;5.326;2023-04-21T10:09:56;101349.75;;;21.18;49.14
45403;BME280;47427;51.976;5.326;2023-04-21T10:13:18;101338.03;;;21.31;48.55
45403;BME280;47427;51.976;5.326;2023-04-21T10:16:41;101347.19;;;19.45;52.45
45403;BME280;47427;51.976;5.326;2023-04-21T10:20:06;101336.63;;;18.76;54.66
45403;BME280;47427;51.976;5.326;2023-04-21T10:23:42;101338.38;;;19.00;53.95
45403;BME280;47427;51.976;5.326;2023-04-21T10:27:10;101332.06;;;18.22;55.90
45403;BME280;47427;51.976;5.326;2023-04-21T10:30:32;101343.28;;;17.59;58.17
45403;BME280;47427;51.976;5.326;2023-04-21T10:34:11;101339.03;;;17.87;59.06
45403;BME280;47427;51.976;5.326;2023-04-21T10:37:34;101323.03;;;17.73;59.29
45403;BME280;47427;51.976;5.326;2023-04-21T10:41:41;101330.31;;;18.40;57.20
45403;BME280;47427;51.976;5.326;2023-04-21T10:45:08;101321.50;;;19.26;55.65
45403;BME280;47427;51.976;5.326;2023-04-21T10:48:36;101320.66;;;18.90;56.43
45403;BME280;47427;51.976;5.326;2023-04-21T10:55:28;101306.38;;;20.97;51.35
45403;BME280;47427;51.976;5.326;2023-04-21T10:58:51;101300.22;;;20.89;53.82
45403;BME280;47427;51.976;5.326;2023-04-21T11:02:18;101301.34;;;20.62;52.58
45403;BME280;47427;51.976;5.326;2023-04-21T11:05:59;101286.69;;;19.90;52.27
45403;BME280;47427;51.976;5.326;2023-04-21T11:09:36;101289.81;;;22.19;48.42
45403;BME280;47427;51.976;5.326;2023-04-21T11:12:59;101283.56;;;20.64;48.70
45403;BME280;47427;51.976;5.326;2023-04-21T11:16:21;101279.16;;;21.50;48.78
45403;BME280;47427;51.976;5.326;2023-04-21T11:19:48;101277.94;;;21.75;48.53
45403;BME280;47427;51.976;5.326;2023-04-21T11:23:16;101268.19;;;22.89;46.18
45403;BME280;47427;51.976;5.326;2023-04-21T11:26:40;101262.72;;;21.05;48.88
45403;BME280;47427;51.976;5.326;2023-04-21T11:30:06;101263.84;;;21.64;50.47
45403;BME280;47427;51.976;5.326;2023-04-21T11:33:29;101255.56;;;24.62;44.30
45403;BME280;47427;51.976;5.326;2023-04-21T11:36:54;101236.69;;;30.38;33.47
45403;BME280;47427;51.976;5.326;2023-04-21T11:40:18;101235.53;;;29.30;31.79
45403;BME280;47427;51.976;5.326;2023-04-21T11:43:45;101227.72;;;29.43;33.41
45403;BME280;47427;51.976;5.326;2023-04-21T11:47:19;101223.38;;;30.51;30.00
45403;BME280;47427;51.976;5.326;2023-04-21T11:50:47;101221.94;;;31.13;27.72
45403;BME280;47427;51.976;5.326;2023-04-21T11:54:12;101216.06;;;28.60;30.53
45403;BME280;47427;51.976;5.326;2023-04-21T11:57:35;101205.94;;;28.01;31.41
45403;BME280;47427;51.976;5.326;2023-04-21T12:01:07;101198.44;;;25.83;34.30
45403;BME280;47427;51.976;5.326;2023-04-21T12:04:30;101216.00;;;29.23;30.86
45403;BME280;47427;51.976;5.326;2023-04-21T12:07:55;101207.59;;;26.86;34.57
45403;BME280;47427;51.976;5.326;2023-04-21T12:11:17;101208.63;;;28.45;31.36
45403;BME280;47427;51.976;5.326;2023-04-21T12:14:40;101197.56;;;27.85;32.09
45403;BME280;47427;51.976;5.326;2023-04-21T12:18:11;101186.91;;;25.20;37.05
45403;BME280;47427;51.976;5.326;2023-04-21T12:21:37;101189.31;;;25.59;36.32
45403;BME280;47427;51.976;5.326;2023-04-21T12:25:01;101199.00;;;27.48;33.32
45403;BME280;47427;51.976;5.326;2023-04-21T12:28:22;101184.28;;;29.27;31.71
45403;BME280;47427;51.976;5.326;2023-04-21T12:31:45;101162.28;;;32.10;28.05
45403;BME280;47427;51.976;5.326;2023-04-21T12:35:07;101166.16;;;33.81;25.36
45403;BME280;47427;51.976;5.326;2023-04-21T12:38:31;101164.91;;;34.66;24.69
45403;BME280;47427;51.976;5.326;2023-04-21T12:41:54;101158.16;;;34.59;23.42
45403;BME280;47427;51.976;5.326;2023-04-21T12:45:16;101162.81;;;31.85;27.14
45403;BME280;47427;51.976;5.326;2023-04-21T12:48:39;101145.66;;;28.44;31.12
45403;BME280;47427;51.976;5.326;2023-04-21T12:52:01;101148.44;;;25.20;35.50
45403;BME280;47427;51.976;5.326;2023-04-21T12:55:25;101142.00;;;24.26;38.37
45403;BME280;47427;51.976;5.326;2023-04-21T12:58:48;101139.78;;;23.73;39.17
45403;BME280;47427;51.976;5.326;2023-04-21T13:02:11;101147.53;;;23.03;39.73
45403;BME280;47427;51.976;5.326;2023-04-21T13:05:32;101149.63;;;22.84;40.85
45403;BME280;47427;51.976;5.326;2023-04-21T13:08:55;101143.91;;;23.86;40.65
45403;BME280;47427;51.976;5.326;2023-04-21T13:12:17;101133.72;;;25.32;37.31
45403;BME280;47427;51.976;5.326;2023-04-21T13:15:40;101135.22;;;29.55;31.66
45403;BME280;47427;51.976;5.326;2023-04-21T13:19:03;101130.25;;;26.39;34.80
45403;BME280;47427;51.976;5.326;2023-04-21T13:22:25;101118.38;;;24.07;38.75
45403;BME280;47427;51.976;5.326;2023-04-21T13:25:48;101107.94;;;23.57;41.13
45403;BME280;47427;51.976;5.326;2023-04-21T13:29:12;101120.97;;;24.10;39.74
45403;BME280;47427;51.976;5.326;2023-04-21T13:32:33;101104.13;;;23.68;40.33
45403;BME280;47427;51.976;5.326;2023-04-21T13:35:56;101101.53;;;22.82;41.25
45403;BME280;47427;51.976;5.326;2023-04-21T13:39:18;101100.97;;;22.15;43.10
45403;BME280;47427;51.976;5.326;2023-04-21T13:42:41;101096.84;;;21.97;43.77
45403;BME280;47427;51.976;5.326;2023-04-21T13:46:04;101087.31;;;21.20;45.67
45403;BME280;47427;51.976;5.326;2023-04-21T13:49:26;101074.16;;;21.70;45.78
45403;BME280;47427;51.976;5.326;2023-04-21T13:52:48;101078.53;;;22.28;44.53
45403;BME280;47427;51.976;5.326;2023-04-21T13:56:11;101073.88;;;25.56;37.93
45403;BME280;47427;51.976;5.326;2023-04-21T13:59:34;101059.16;;;26.21;36.46
45403;BME280;47427;51.976;5.326;2023-04-21T14:03:17;101055.31;;;25.48;39.35
45403;BME280;47427;51.976;5.326;2023-04-21T14:06:39;101046.81;;;23.75;41.24
45403;BME280;47427;51.976;5.326;2023-04-21T14:10:02;101054.56;;;22.69;43.72
45403;BME280;47427;51.976;5.326;2023-04-21T14:13:46;101045.91;;;21.55;45.15
45403;BME280;47427;51.976;5.326;2023-04-21T14:17:07;101045.06;;;22.04;43.83
45403;BME280;47427;51.976;5.326;2023-04-21T14:20:30;101044.31;;;21.43;45.16
45403;BME280;47427;51.976;5.326;2023-04-21T14:23:52;101047.97;;;20.68;47.09
45403;BME280;47427;51.976;5.326;2023-04-21T14:27:13;101044.56;;;20.54;47.50
45403;BME280;47427;51.976;5.326;2023-04-21T14:30:36;101043.22;;;20.16;48.69
45403;BME280;47427;51.976;5.326;2023-04-21T14:33:58;101033.72;;;19.89;50.22
45403;BME280;47427;51.976;5.326;2023-04-21T14:37:21;101026.19;;;20.28;50.08
45403;BME280;47427;51.976;5.326;2023-04-21T14:40:43;101016.19;;;20.48;49.56
45403;BME280;47427;51.976;5.326;2023-04-21T14:44:06;101000.28;;;24.12;43.60
45403;BME280;47427;51.976;5.326;2023-04-21T14:47:29;100997.13;;;26.01;38.15
45403;BME280;47427;51.976;5.326;2023-04-21T14:50:52;100993.38;;;24.36;40.22
45403;BME280;47427;51.976;5.326;2023-04-21T14:54:14;100983.38;;;24.72;41.09
45403;BME280;47427;51.976;5.326;2023-04-21T14:57:38;100980.38;;;25.92;38.38
45403;BME280;47427;51.976;5.326;2023-04-21T15:00:59;100974.25;;;23.84;40.79
45403;BME280;47427;51.976;5.326;2023-04-21T15:04:22;100966.31;;;22.66;44.05
45403;BME280;47427;51.976;5.326;2023-04-21T15:07:45;100963.63;;;22.25;45.44
45403;BME280;47427;51.976;5.326;2023-04-21T15:11:06;100952.25;;;21.66;46.76
45403;BME280;47427;51.976;5.326;2023-04-21T15:14:29;100945.03;;;21.71;46.56
45403;BME280;47427;51.976;5.326;2023-04-21T15:17:52;100946.28;;;21.52;47.06
45403;BME280;47427;51.976;5.326;2023-04-21T15:21:14;100934.00;;;21.91;45.81
45403;BME280;47427;51.976;5.326;2023-04-21T15:24:37;100932.81;;;22.06;46.58
45403;BME280;47427;51.976;5.326;2023-04-21T15:27:59;100925.75;;;21.55;46.09
45403;BME280;47427;51.976;5.326;2023-04-21T15:31:22;100920.22;;;21.66;47.36
45403;BME280;47427;51.976;5.326;2023-04-21T15:34:45;100911.44;;;22.48;45.21
45403;BME280;47427;51.976;5.326;2023-04-21T15:38:09;100915.84;;;22.50;43.63
45403;BME280;47427;51.976;5.326;2023-04-21T15:41:32;100905.69;;;24.38;41.37
45403;BME280;47427;51.976;5.326;2023-04-21T15:45:14;100913.09;;;25.17;37.99
45403;BME280;47427;51.976;5.326;2023-04-21T15:48:41;100900.22;;;23.46;40.62
45403;BME280;47427;51.976;5.326;2023-04-21T15:52:22;100901.81;;;21.51;45.43
45403;BME280;47427;51.976;5.326;2023-04-21T15:55:45;100892.75;;;21.07;46.94
45403;BME280;47427;51.976;5.326;2023-04-21T15:59:27;100897.97;;;20.54;48.74
45403;BME280;47427;51.976;5.326;2023-04-21T16:02:50;100882.78;;;22.56;45.20
45403;BME280;47427;51.976;5.326;2023-04-21T16:06:13;100880.44;;;21.52;46.72
45403;BME280;47427;51.976;5.326;2023-04-21T16:09:35;100874.66;;;20.70;48.02
45403;BME280;47427;51.976;5.326;2023-04-21T16:13:17;100863.41;;;19.77;50.36
45403;BME280;47427;51.976;5.326;2023-04-21T16:16:41;100863.72;;;19.46;51.77
45403;BME280;47427;51.976;5.326;2023-04-21T16:20:03;100856.66;;;19.42;52.65
45403;BME280;47427;51.976;5.326;2023-04-21T16:23:27;100839.06;;;20.71;50.05
45403;BME280;47427;51.976;5.326;2023-04-21T16:26:49;100840.84;;;22.16;47.46
45403;BME280;47427;51.976;5.326;2023-04-21T16:30:11;100831.72;;;23.04;45.79
45403;BME280;47427;51.976;5.326;2023-04-21T16:33:34;100831.00;;;22.20;45.94
45403;BME280;47427;51.976;5.326;2023-04-21T16:36:55;100827.75;;;22.46;45.18
45403;BME280;47427;51.976;5.326;2023-04-21T16:40:18;100822.91;;;22.99;44.42
45403;BME280;47427;51.976;5.326;2023-04-21T16:43:43;100810.84;;;22.44;43.79
45403;BME280;47427;51.976;5.326;2023-04-21T16:47:05;100823.88;;;20.77;47.31
45403;BME280;47427;51.976;5.326;2023-04-21T16:50:28;100820.25;;;20.21;48.51
45403;BME280;47427;51.976;5.326;2023-04-21T16:53:51;100819.31;;;19.49;50.73
45403;BME280;47427;51.976;5.326;2023-04-21T16:57:13;100816.31;;;18.95;52.39
45403;BME280;47427;51.976;5.326;2023-04-21T17:00:36;100826.31;;;18.59;54.37
45403;BME280;47427;51.976;5.326;2023-04-21T17:03:58;100827.38;;;18.34;55.52
45403;BME280;47427;51.976;5.326;2023-04-21T17:07:21;100808.91;;;18.15;56.38
45403;BME280;47427;51.976;5.326;2023-04-21T17:10:43;100815.25;;;17.82;57.85
45403;BME280;47427;51.976;5.326;2023-04-21T17:14:06;100810.84;;;17.66;58.94
45403;BME280;47427;51.976;5.326;2023-04-21T17:17:41;100811.72;;;17.72;58.74
45403;BME280;47427;51.976;5.326;2023-04-21T17:21:04;100802.00;;;17.67;59.28
45403;BME280;47427;51.976;5.326;2023-04-21T17:24:27;100799.41;;;17.58;59.83
45403;BME280;47427;51.976;5.326;2023-04-21T17:27:50;100785.25;;;17.54;60.67
45403;BME280;47427;51.976;5.326;2023-04-21T17:31:12;100761.38;;;17.55;62.11
45403;BME280;47427;51.976;5.326;2023-04-21T17:34:34;100744.50;;;17.70;62.74
45403;BME280;47427;51.976;5.326;2023-04-21T17:37:58;100736.53;;;17.70;64.14
45403;BME280;47427;51.976;5.326;2023-04-21T17:41:21;100737.47;;;17.59;62.86
45403;BME280;47427;51.976;5.326;2023-04-21T17:44:44;100748.09;;;17.65;62.80
45403;BME280;47427;51.976;5.326;2023-04-21T17:48:06;100750.66;;;17.74;63.24
45403;BME280;47427;51.976;5.326;2023-04-21T17:51:28;100761.38;;;17.55;63.23